Terminal Aerodrome Forecast
Issued by NWS

Current Version | Previous Version | Text Only | Print | Product List | Glossary On
Versions: 1 2 3 4 5 6 7 8 9 10 11 12 13 14
000
FTUS45 KRIW 030530
TAFWRL
TAF
KWRL 030530Z 0306/0406 33006KT P6SM SCT120
     FM032200 VRB15G30KT P6SM VCTS SCT050CB BKN150
     FM040200 07007KT P6SM VCSH BKN040=

USA.gov is the U.S. government's official web portal to all federal, state and local government web resources and services.